Time;durP1;ratioP1;P1;durP2;ratioP2;P2;SDS_P1;SDS_P2;PMS_P1;PMS_P2;Temp;Humidity;BMP_temperature;BMP_pressure;BME280_temperature;BME280_humidity;BME280_pressure;Samples;Min_cycle;Max_cycle;Signal;HPM_P1;HPM_P2
2022/05/30 00:01:43;;;;;;;5.57;2.33;;;;;8.20;100899.00;;;;10457826;28;20173;-82
2022/05/30 00:06:45;;;;;;;6.37;2.50;;;;;8.20;100888.00;;;;10459734;28;20643;-81
2022/05/30 00:11:48;;;;;;;7.47;2.87;;;;;8.10;100886.00;;;;10458688;28;20209;-82
2022/05/30 00:16:50;;;;;;;4.67;3.00;;;;;8.00;100888.00;;;;10442428;28;20624;-81
2022/05/30 00:21:55;;;;;;;5.57;2.77;;;;;7.90;100882.00;;;;10442147;28;20182;-82
2022/05/30 00:26:57;;;;;;;5.03;2.53;;;;;7.70;100880.00;;;;10458386;28;20190;-82
2022/05/30 00:31:59;;;;;;;5.83;2.97;;;;;7.50;100879.00;;;;10441075;28;20212;-82
2022/05/30 00:37:01;;;;;;;7.93;3.03;;;;;7.40;100880.00;;;;10474377;28;20190;-81
2022/05/30 00:42:08;;;;;;;5.23;2.60;;;;;7.20;100874.00;;;;10414112;28;20194;-82
2022/05/30 00:47:11;;;;;;;7.07;2.60;;;;;7.00;100871.00;;;;10400377;28;20199;-82
2022/05/30 00:52:17;;;;;;;5.67;2.90;;;;;6.90;100872.00;;;;10443665;28;20743;-82
2022/05/30 00:57:22;;;;;;;6.93;2.97;;;;;6.80;100859.00;;;;10425424;28;20305;-82
2022/05/30 01:02:27;;;;;;;4.87;3.30;;;;;6.70;100861.00;;;;10442897;28;20304;-82
2022/05/30 01:07:30;;;;;;;7.40;3.40;;;;;6.60;100863.00;;;;10473152;28;20190;-82
2022/05/30 01:12:42;;;;;;;8.40;3.17;;;;;6.50;100855.00;;;;10470086;28;20259;-82
2022/05/30 01:18:14;;;;;;;8.43;3.50;;;;;6.40;100863.00;;;;10440101;28;20228;-82
2022/05/30 01:23:16;;;;;;;4.53;3.20;;;;;6.40;100853.00;;;;10431193;28;20689;-82
2022/05/30 01:28:33;;;;;;;3.40;2.70;;;;;6.30;100858.00;;;;10431638;28;20197;-81
2022/05/30 01:33:35;;;;;;;6.97;3.50;;;;;6.20;100866.00;;;;10428079;28;20213;-82
2022/05/30 01:38:39;;;;;;;10.77;3.67;;;;;6.10;100858.00;;;;10438923;28;20231;-81
2022/05/30 01:43:45;;;;;;;8.93;3.50;;;;;6.00;100837.00;;;;10454992;28;20186;-81
2022/05/30 01:48:48;;;;;;;9.50;3.40;;;;;5.90;100834.00;;;;10437529;28;20246;-81
2022/05/30 01:53:51;;;;;;;5.37;3.47;;;;;5.90;100837.00;;;;10471788;28;20198;-81
2022/05/30 01:58:58;;;;;;;7.20;3.53;;;;;5.80;100828.00;;;;10449469;28;20587;-81
2022/05/30 02:04:13;;;;;;;7.30;3.53;;;;;5.70;100831.00;;;;10455769;28;20217;-81
2022/05/30 02:09:15;;;;;;;7.37;3.73;;;;;5.60;100845.00;;;;10433743;28;20212;-81
2022/05/30 02:14:17;;;;;;;7.10;4.47;;;;;5.50;100838.00;;;;10413857;28;20314;-82
2022/05/30 02:19:21;;;;;;;6.97;5.00;;;;;5.50;100850.00;;;;10413008;28;20565;-81
2022/05/30 02:24:23;;;;;;;9.33;4.70;;;;;5.50;100831.00;;;;10434770;28;20186;-81
2022/05/30 02:29:25;;;;;;;8.93;4.83;;;;;5.40;100829.00;;;;10453334;28;20193;-81
2022/05/30 02:39:54;;;;;;;12.17;5.27;;;;;5.30;100830.00;;;;10453426;28;20785;-81
2022/05/30 02:45:08;;;;;;;8.63;5.17;;;;;5.30;100835.00;;;;10454285;28;20200;-80
2022/05/30 02:50:10;;;;;;;10.80;5.60;;;;;5.30;100838.00;;;;10433387;28;20218;-81
2022/05/30 02:55:12;;;;;;;8.43;4.97;;;;;5.20;100830.00;;;;10452766;28;20205;-81
2022/05/30 03:00:26;;;;;;;6.43;4.97;;;;;5.10;100845.00;;;;10437370;28;20219;-81
2022/05/30 03:05:31;;;;;;;8.97;5.50;;;;;5.10;100846.00;;;;10426020;28;20677;-81
2022/05/30 03:10:35;;;;;;;9.47;6.00;;;;;5.10;100846.00;;;;10396265;28;20305;-81
2022/05/30 03:15:39;;;;;;;11.70;5.40;;;;;5.10;100851.00;;;;10426310;28;20286;-81
2022/05/30 03:20:41;;;;;;;12.03;6.33;;;;;5.10;100852.00;;;;10410828;28;20289;-82
2022/05/30 03:25:44;;;;;;;11.50;7.27;;;;;5.10;100852.00;;;;10409504;28;20253;-81
2022/05/30 03:30:45;;;;;;;9.63;6.50;;;;;5.10;100856.00;;;;10437001;28;20235;-82
2022/05/30 03:35:48;;;;;;;14.10;7.07;;;;;5.10;100853.00;;;;10456677;28;20204;-81
2022/05/30 03:41:12;;;;;;;11.03;7.33;;;;;5.10;100847.00;;;;10456529;28;20190;-82
2022/05/30 03:46:19;;;;;;;16.03;7.37;;;;;5.10;100857.00;;;;10434429;28;20187;-81
2022/05/30 03:51:22;;;;;;;12.23;7.70;;;;;5.20;100864.00;;;;10423089;28;20218;-81
2022/05/30 03:56:24;;;;;;;16.27;8.20;;;;;5.20;100861.00;;;;10417607;28;20194;-81
2022/05/30 04:01:26;;;;;;;14.67;7.97;;;;;5.30;100865.00;;;;10450717;28;20556;-81
2022/05/30 04:06:29;;;;;;;19.53;8.97;;;;;5.50;100863.00;;;;10449406;28;20221;-80
2022/05/30 04:11:32;;;;;;;17.73;8.97;;;;;5.70;100861.00;;;;10457238;28;20236;-81
2022/05/30 04:16:36;;;;;;;16.67;8.77;;;;;6.10;100856.00;;;;10454554;28;20687;-81
2022/05/30 04:21:44;;;;;;;14.73;8.17;;;;;6.50;100861.00;;;;10416351;28;20183;-81
2022/05/30 04:26:51;;;;;;;17.13;8.53;;;;;6.80;100856.00;;;;10432873;28;20680;-82
2022/05/30 04:31:54;;;;;;;13.00;7.97;;;;;7.00;100860.00;;;;10439227;28;20259;-81
2022/05/30 04:36:57;;;;;;;15.00;9.33;;;;;7.20;100859.00;;;;10457978;28;20193;-82
2022/05/30 04:41:59;;;;;;;13.70;8.73;;;;;7.50;100848.00;;;;10441121;28;20223;-81
2022/05/30 04:47:27;;;;;;;13.57;9.10;;;;;7.90;100852.00;;;;10459633;28;20288;-81
2022/05/30 04:52:29;;;;;;;13.43;9.13;;;;;8.30;100849.00;;;;10422094;28;20260;-81
2022/05/30 04:57:43;;;;;;;13.77;8.23;;;;;9.00;100856.00;;;;10418032;28;20724;-81
2022/05/30 05:02:58;;;;;;;17.07;9.53;;;;;9.60;100855.00;;;;10457691;28;20270;-82
2022/05/30 05:08:06;;;;;;;15.20;8.90;;;;;9.60;100851.00;;;;10441144;28;20197;-81
2022/05/30 05:13:28;;;;;;;16.27;8.03;;;;;9.70;100857.00;;;;10459411;28;20618;-82
2022/05/30 05:18:49;;;;;;;14.70;7.90;;;;;9.90;100862.00;;;;10474768;28;20197;-82
2022/05/30 05:23:51;;;;;;;12.33;7.50;;;;;10.10;100860.00;;;;10455816;28;20202;-82
2022/05/30 05:28:57;;;;;;;12.23;7.17;;;;;10.20;100867.00;;;;10446129;28;20668;-81
2022/05/30 05:34:01;;;;;;;11.27;6.77;;;;;10.40;100864.00;;;;10450508;28;20213;-81
2022/05/30 05:39:03;;;;;;;12.57;6.73;;;;;10.80;100876.00;;;;10454181;28;20602;-81
2022/05/30 05:44:18;;;;;;;11.77;5.97;;;;;11.50;100859.00;;;;10431536;28;20194;-82
2022/05/30 05:49:21;;;;;;;8.13;4.93;;;;;11.80;100862.00;;;;10454034;28;20193;-82
2022/05/30 05:54:23;;;;;;;10.43;4.97;;;;;12.10;100875.00;;;;10390253;28;20234;-83
2022/05/30 05:59:28;;;;;;;10.27;4.80;;;;;12.30;100882.00;;;;10433324;28;20288;-82
2022/05/30 06:04:30;;;;;;;11.30;4.57;;;;;12.30;100886.00;;;;10410047;28;20214;-81
2022/05/30 06:09:51;;;;;;;10.70;4.27;;;;;12.50;100888.00;;;;10425842;28;20552;-83
2022/05/30 06:15:28;;;;;;;11.80;4.47;;;;;12.70;100886.00;;;;10414808;28;20198;-82
2022/05/30 06:20:59;;;;;;;9.27;4.47;;;;;13.20;100879.00;;;;10448219;28;20204;-82
2022/05/30 06:26:08;;;;;;;5.40;3.23;;;;;13.60;100883.00;;;;10442226;28;20190;-82
2022/05/30 06:31:30;;;;;;;8.57;3.03;;;;;14.00;100879.00;;;;10442755;28;20206;-82
2022/05/30 06:36:32;;;;;;;9.00;2.73;;;;;14.20;100892.00;;;;10431778;28;20212;-82
2022/05/30 06:41:34;;;;;;;7.53;2.40;;;;;14.30;100904.00;;;;10440804;28;20755;-81
2022/05/30 06:46:42;;;;;;;10.33;2.53;;;;;14.50;100891.00;;;;10410330;28;20198;-82
2022/05/30 06:52:02;;;;;;;5.37;2.07;;;;;14.50;100892.00;;;;10441657;28;20217;-82
2022/05/30 07:02:26;;;;;;;7.00;2.17;;;;;14.90;100885.00;;;;10434759;28;20232;-83
2022/05/30 07:07:46;;;;;;;7.80;2.00;;;;;14.30;100881.00;;;;10414487;28;20608;-83
2022/05/30 07:13:18;;;;;;;9.00;2.37;;;;;16.00;100870.00;;;;10410241;28;20715;-83
2022/05/30 07:18:20;;;;;;;9.93;2.00;;;;;16.90;100872.00;;;;10411708;28;20289;-83
2022/05/30 07:23:25;;;;;;;9.40;2.20;;;;;17.70;100877.00;;;;10441995;28;20295;-84
2022/05/30 07:28:46;;;;;;;6.03;1.80;;;;;18.10;100882.00;;;;10470079;28;20185;-84
2022/05/30 07:34:08;;;;;;;6.18;1.40;;;;;18.50;100881.00;;;;10425221;28;20219;-82
2022/05/30 07:39:28;;;;;;;4.57;1.52;;;;;19.10;100863.00;;;;10454510;28;20205;-82
2022/05/30 07:44:53;;;;;;;5.65;1.48;;;;;19.40;100864.00;;;;10432397;28;20195;-82
2022/05/30 07:50:11;;;;;;;3.38;1.33;;;;;19.60;100860.00;;;;10434272;28;20624;-81
2022/05/30 07:55:24;;;;;;;5.45;1.40;;;;;20.00;100872.00;;;;10410300;28;20210;-82
2022/05/30 08:00:29;;;;;;;3.55;1.45;;;;;20.30;100865.00;;;;10419422;28;20225;-82
2022/05/30 08:05:43;;;;;;;4.32;1.27;;;;;20.90;100860.00;;;;10437325;28;20210;-81
2022/05/30 08:11:17;;;;;;;4.80;1.30;;;;;21.50;100861.00;;;;10398173;28;20264;-82
2022/05/30 08:16:26;;;;;;;4.47;1.85;;;;;21.20;100865.00;;;;10420742;28;20189;-82
2022/05/30 08:21:48;;;;;;;5.97;1.70;;;;;21.00;100878.00;;;;10456066;28;20636;-82
2022/05/30 08:26:50;;;;;;;4.97;1.48;;;;;20.20;100872.00;;;;10442418;28;20193;-82
2022/05/30 08:32:12;;;;;;;3.22;1.33;;;;;19.90;100883.00;;;;10472671;28;20233;-82
2022/05/30 08:37:44;;;;;;;5.18;1.80;;;;;19.90;100875.00;;;;10404414;28;20190;-82
2022/05/30 08:42:47;;;;;;;3.80;1.35;;;;;20.30;100878.00;;;;10431828;28;20240;-82
2022/05/30 08:48:15;;;;;;;2.92;1.27;;;;;19.90;100881.00;;;;10427075;28;20259;-82
2022/05/30 08:53:38;;;;;;;2.58;1.27;;;;;19.70;100883.00;;;;10418975;28;20205;-82
2022/05/30 08:58:53;;;;;;;4.53;1.58;;;;;19.90;100888.00;;;;10456341;28;20196;-82
2022/05/30 09:04:09;;;;;;;3.75;1.35;;;;;19.80;100910.00;;;;10471514;28;20213;-82
2022/05/30 09:09:44;;;;;;;4.93;1.70;;;;;19.60;100889.00;;;;10456022;28;20193;-81
2022/05/30 09:15:07;;;;;;;3.80;1.30;;;;;19.50;100901.00;;;;10455500;28;20213;-81
2022/05/30 09:20:14;;;;;;;4.78;1.58;;;;;19.30;100900.00;;;;10431224;28;20225;-81
2022/05/30 09:31:21;;;;;;;4.47;1.38;;;;;18.70;100891.00;;;;10470318;28;20209;-82
2022/05/30 09:36:48;;;;;;;5.18;1.50;;;;;18.70;100880.00;;;;10456934;28;20189;-81
2022/05/30 09:42:34;;;;;;;3.50;1.52;;;;;18.90;100888.00;;;;10454879;28;20289;-82
2022/05/30 09:47:37;;;;;;;4.00;1.40;;;;;19.20;100889.00;;;;10453219;28;20263;-82
2022/05/30 09:52:52;;;;;;;2.97;1.20;;;;;19.40;100889.00;;;;10454634;28;20570;-81
2022/05/30 09:58:00;;;;;;;4.38;1.42;;;;;20.80;100875.00;;;;10454372;28;20288;-81
2022/05/30 10:03:29;;;;;;;2.60;1.30;;;;;23.40;100887.00;;;;10430864;28;20285;-82
2022/05/30 10:09:15;;;;;;;2.92;1.42;;;;;24.00;100891.00;;;;10414309;28;20289;-82
2022/05/30 10:14:22;;;;;;;3.20;1.45;;;;;23.60;100897.00;;;;10456874;28;20205;-82
2022/05/30 10:19:55;;;;;;;4.90;1.63;;;;;22.60;100890.00;;;;10469978;28;20197;-82
2022/05/30 10:31:33;;;;;;;3.10;1.30;;;;;21.40;100894.00;;;;10421191;28;20648;-81
2022/05/30 10:37:18;;;;;;;3.45;1.70;;;;;20.80;100901.00;;;;10416471;28;20201;-82
2022/05/30 10:42:29;;;;;;;2.80;1.40;;;;;21.20;100896.00;;;;10435210;28;20244;-82
2022/05/30 10:47:39;;;;;;;2.60;1.60;;;;;21.40;100899.00;;;;10436108;28;20835;-81
2022/05/30 10:52:44;;;;;;;3.80;1.58;;;;;21.50;100904.00;;;;10406864;28;20225;-82
2022/05/30 10:58:06;;;;;;;3.83;1.40;;;;;21.80;100900.00;;;;10426906;28;20194;-81
2022/05/30 11:03:12;;;;;;;4.65;1.42;;;;;21.50;100902.00;;;;10468548;28;20579;-82
2022/05/30 11:08:25;;;;;;;3.10;1.42;;;;;22.00;100900.00;;;;10434546;28;20202;-82
2022/05/30 11:13:39;;;;;;;3.63;1.92;;;;;22.50;100889.00;;;;10411186;28;20202;-82
2022/05/30 11:19:18;;;;;;;5.93;1.50;;;;;22.90;100881.00;;;;10469614;28;20203;-82
2022/05/30 11:24:43;;;;;;;4.22;1.67;;;;;22.50;100894.00;;;;10453816;28;20245;-81
2022/05/30 11:30:33;;;;;;;2.35;1.40;;;;;22.20;100894.00;;;;10433293;28;20197;-81
2022/05/30 11:35:37;;;;;;;3.67;1.30;;;;;22.50;100895.00;;;;10416240;28;20284;-82
2022/05/30 11:40:49;;;;;;;4.45;1.95;;;;;22.80;100904.00;;;;10440922;28;20252;-82
2022/05/30 11:45:58;;;;;;;4.88;1.60;;;;;22.70;100890.00;;;;10425582;28;20229;-82
2022/05/30 11:51:35;;;;;;;3.45;1.50;;;;;22.70;100892.00;;;;10442019;28;20285;-82
2022/05/30 11:56:49;;;;;;;2.97;1.75;;;;;22.10;100884.00;;;;10406422;28;20214;-82
2022/05/30 12:01:56;;;;;;;2.85;1.48;;;;;21.10;100884.00;;;;10438980;28;20232;-81
2022/05/30 12:07:06;;;;;;;3.33;1.75;;;;;20.60;100883.00;;;;10458352;28;20296;-81
2022/05/30 12:12:39;;;;;;;2.42;1.60;;;;;20.30;100877.00;;;;10452422;28;20202;-81
2022/05/30 12:23:49;;;;;;;3.17;1.73;;;;;21.00;100877.00;;;;10474166;28;20193;-81
2022/05/30 12:28:53;;;;;;;4.03;1.42;;;;;22.00;100867.00;;;;10440632;28;20200;-82
2022/05/30 12:33:55;;;;;;;7.40;2.03;;;;;22.20;100863.00;;;;10426030;28;20210;-81
2022/05/30 12:38:59;;;;;;;3.50;2.17;;;;;21.40;100873.00;;;;10416010;28;20238;-82
2022/05/30 12:44:02;;;;;;;5.43;2.10;;;;;21.30;100871.00;;;;10432043;28;20199;-82
2022/05/30 12:49:14;;;;;;;5.40;1.88;;;;;20.70;100859.00;;;;10429235;28;20656;-81
2022/05/30 12:54:25;;;;;;;7.03;2.13;;;;;20.50;100863.00;;;;10438368;28;20198;-81
2022/05/30 12:59:33;;;;;;;5.38;2.28;;;;;19.70;100856.00;;;;10416922;28;20260;-81
2022/05/30 13:04:41;;;;;;;7.05;2.10;;;;;19.30;100857.00;;;;10454785;28;20209;-81
2022/05/30 13:09:45;;;;;;;6.22;2.20;;;;;19.20;100866.00;;;;10454471;28;20266;-81
2022/05/30 13:15:10;;;;;;;4.35;1.90;;;;;19.00;100873.00;;;;10439721;28;20636;-81
2022/05/30 13:20:16;;;;;;;4.38;2.22;;;;;19.40;100868.00;;;;10446502;28;20239;-82
2022/05/30 13:25:34;;;;;;;5.32;2.35;;;;;19.90;100866.00;;;;10471908;28;20189;-81
2022/05/30 13:30:37;;;;;;;3.45;2.47;;;;;20.50;100862.00;;;;10440430;28;20197;-82
2022/05/30 13:35:42;;;;;;;3.67;1.98;;;;;20.90;100862.00;;;;10470818;28;20224;-80
2022/05/30 13:40:47;;;;;;;4.07;2.10;;;;;21.30;100859.00;;;;10470991;28;20202;-81
2022/05/30 13:45:49;;;;;;;4.15;2.10;;;;;22.20;100850.00;;;;10416883;28;20190;-81
2022/05/30 13:51:00;;;;;;;4.53;2.20;;;;;23.20;100848.00;;;;10428779;28;20553;-81
2022/05/30 13:56:33;;;;;;;5.40;2.60;;;;;23.40;100834.00;;;;10412630;28;20292;-81
2022/05/30 14:01:37;;;;;;;4.65;2.50;;;;;24.00;100853.00;;;;10416174;28;20652;-81
2022/05/30 14:06:43;;;;;;;5.35;2.47;;;;;23.50;100835.00;;;;10438178;28;20404;-81
2022/05/30 14:11:48;;;;;;;5.43;2.17;;;;;24.00;100834.00;;;;10412787;28;20930;-81
2022/05/30 14:17:12;;;;;;;3.22;2.00;;;;;23.70;100830.00;;;;10412199;28;20206;-81
2022/05/30 14:22:21;;;;;;;6.00;2.10;;;;;24.10;100821.00;;;;10445705;28;20711;-80
2022/05/30 14:27:23;;;;;;;6.68;2.08;;;;;27.00;100816.00;;;;10429656;28;20263;-81
2022/05/30 14:32:31;;;;;;;4.72;2.55;;;;;24.40;100835.00;;;;10445467;28;20182;-81
2022/05/30 14:37:37;;;;;;;4.45;2.38;;;;;22.50;100831.00;;;;10427072;28;20224;-81
2022/05/30 14:42:52;;;;;;;4.97;2.40;;;;;21.80;100830.00;;;;10470000;28;20227;-81
2022/05/30 14:47:59;;;;;;;3.33;2.33;;;;;21.80;100828.00;;;;10445554;28;20233;-81
2022/05/30 14:53:05;;;;;;;4.63;1.90;;;;;21.80;100813.00;;;;10435109;28;20668;-81
2022/05/30 14:58:14;;;;;;;4.50;2.10;;;;;22.60;100807.00;;;;10440287;28;20216;-81
2022/05/30 15:08:37;;;;;;;5.75;1.83;;;;;24.30;100821.00;;;;10449990;28;20185;-81
2022/05/30 15:13:39;;;;;;;2.65;2.05;;;;;23.00;100813.00;;;;10421586;28;20210;-81
2022/05/30 15:18:43;;;;;;;4.80;1.95;;;;;22.00;100820.00;;;;10425846;28;20201;-81
2022/05/30 15:23:45;;;;;;;4.60;2.30;;;;;21.30;100819.00;;;;10421493;28;20289;-81
2022/05/30 15:28:47;;;;;;;6.85;2.60;;;;;21.00;100817.00;;;;10439494;28;20194;-80
2022/05/30 15:33:49;;;;;;;4.78;2.13;;;;;20.50;100815.00;;;;10437313;28;20205;-81
2022/05/30 15:38:51;;;;;;;4.90;2.22;;;;;20.60;100819.00;;;;10439448;28;20201;-81
2022/05/30 15:43:53;;;;;;;6.15;2.00;;;;;20.70;100814.00;;;;10452120;28;20190;-81
2022/05/30 15:48:55;;;;;;;4.68;2.17;;;;;20.90;100804.00;;;;10472781;28;20193;-81
2022/05/30 15:59:22;;;;;;;2.90;1.90;;;;;21.00;100809.00;;;;10450818;28;20197;-82
2022/05/30 16:04:24;;;;;;;5.13;2.05;;;;;21.20;100799.00;;;;10445314;28;20214;-81
2022/05/30 16:09:32;;;;;;;3.50;2.50;;;;;21.20;100795.00;;;;10421956;28;20193;-82
2022/05/30 16:14:34;;;;;;;5.65;2.30;;;;;20.90;100795.00;;;;10451962;28;20205;-81
2022/05/30 16:19:36;;;;;;;7.32;2.58;;;;;20.20;100796.00;;;;10454926;28;20197;-82
2022/05/30 16:24:38;;;;;;;5.95;2.53;;;;;19.80;100793.00;;;;10470808;28;20268;-81
2022/05/30 16:29:40;;;;;;;4.47;2.25;;;;;19.60;100793.00;;;;10456806;28;20201;-82
2022/05/30 16:34:42;;;;;;;4.47;1.98;;;;;20.00;100790.00;;;;10440815;28;20585;-82
2022/05/30 16:39:44;;;;;;;4.88;2.00;;;;;20.20;100790.00;;;;10441557;28;20190;-82
2022/05/30 16:44:48;;;;;;;4.32;2.05;;;;;19.80;100784.00;;;;10455692;28;20189;-82
2022/05/30 16:49:51;;;;;;;4.78;2.05;;;;;19.30;100775.00;;;;10440930;28;20190;-80
2022/05/30 16:54:54;;;;;;;3.25;2.20;;;;;19.00;100788.00;;;;10413901;28;20619;-82
2022/05/30 17:00:16;;;;;;;7.30;1.85;;;;;18.80;100778.00;;;;10426658;28;20224;-82
2022/05/30 17:05:18;;;;;;;6.25;2.05;;;;;18.60;100773.00;;;;10429271;28;20222;-81
2022/05/30 17:10:20;;;;;;;4.28;2.10;;;;;18.60;100770.00;;;;10431258;28;20202;-82
2022/05/30 17:15:23;;;;;;;3.65;1.65;;;;;18.50;100775.00;;;;10437410;28;20225;-82
2022/05/30 17:20:36;;;;;;;6.63;2.13;;;;;18.40;100772.00;;;;10437365;28;20564;-82
2022/05/30 17:25:46;;;;;;;4.07;2.20;;;;;18.30;100773.00;;;;10453475;28;20853;-82
2022/05/30 17:30:49;;;;;;;4.25;2.10;;;;;18.20;100777.00;;;;10450053;28;20198;-81
2022/05/30 17:35:51;;;;;;;9.15;2.28;;;;;18.10;100775.00;;;;10447799;28;20624;-82
2022/05/30 17:40:53;;;;;;;7.38;2.17;;;;;17.90;100782.00;;;;10452037;28;20197;-81
2022/05/30 17:46:10;;;;;;;5.47;2.22;;;;;17.80;100781.00;;;;10451394;28;20205;-81
2022/05/30 17:51:48;;;;;;;5.85;2.30;;;;;17.70;100776.00;;;;10451880;28;20213;-81
2022/05/30 17:56:51;;;;;;;4.43;2.00;;;;;17.50;100786.00;;;;10422010;28;20225;-82
2022/05/30 18:01:53;;;;;;;4.35;2.35;;;;;17.20;100787.00;;;;10443673;28;20537;-82
2022/05/30 18:07:08;;;;;;;9.38;2.85;;;;;17.10;100777.00;;;;10436223;28;20216;-81
2022/05/30 18:12:15;;;;;;;5.55;2.42;;;;;17.20;100790.00;;;;10434569;28;20268;-82
2022/05/30 18:17:29;;;;;;;3.08;2.20;;;;;17.30;100779.00;;;;10449710;28;20584;-81
2022/05/30 18:22:52;;;;;;;8.38;2.55;;;;;17.30;100787.00;;;;10451549;28;20220;-81
2022/05/30 18:27:58;;;;;;;4.93;2.88;;;;;17.20;100777.00;;;;10441297;28;20565;-81
2022/05/30 18:33:31;;;;;;;5.75;2.53;;;;;16.80;100785.00;;;;10434334;28;20209;-81
2022/05/30 18:38:53;;;;;;;3.28;2.47;;;;;16.60;100785.00;;;;10408801;28;20214;-81
2022/05/30 18:43:59;;;;;;;8.68;7.78;;;;;16.40;100787.00;;;;10408371;28;20206;-81
2022/05/30 18:49:06;;;;;;;10.80;5.78;;;;;16.10;100796.00;;;;10409564;28;20696;-80
2022/05/30 18:54:08;;;;;;;3.70;3.30;;;;;16.00;100799.00;;;;10400334;28;20214;-82
2022/05/30 18:59:31;;;;;;;6.03;2.10;;;;;15.80;100801.00;;;;10409003;28;20263;-81
2022/05/30 19:04:33;;;;;;;7.07;2.30;;;;;15.60;100797.00;;;;10456399;28;20229;-81
2022/05/30 19:09:35;;;;;;;3.87;2.33;;;;;15.40;100798.00;;;;10407809;28;20665;-81
2022/05/30 19:14:40;;;;;;;6.13;2.20;;;;;15.20;100803.00;;;;10416301;28;20221;-81
2022/05/30 19:20:02;;;;;;;6.30;3.17;;;;;14.80;100812.00;;;;10407266;28;20351;-81
2022/05/30 19:25:06;;;;;;;4.47;2.43;;;;;14.40;100815.00;;;;10409683;28;20201;-81
2022/05/30 19:30:20;;;;;;;4.87;2.70;;;;;14.00;100816.00;;;;10423879;28;20201;-80
2022/05/30 19:35:27;;;;;;;4.40;2.60;;;;;13.70;100822.00;;;;10463068;28;20213;-81
2022/05/30 19:40:38;;;;;;;6.10;3.13;;;;;13.40;100816.00;;;;10405960;28;20233;-80
2022/05/30 19:45:40;;;;;;;3.97;2.43;;;;;13.10;100823.00;;;;10406689;28;20201;-80
2022/05/30 19:50:42;;;;;;;4.13;2.70;;;;;12.90;100832.00;;;;10446354;28;20209;-80
2022/05/30 19:55:45;;;;;;;4.97;3.10;;;;;12.70;100828.00;;;;10404201;28;20308;-81
2022/05/30 20:00:47;;;;;;;3.63;2.70;;;;;12.50;100831.00;;;;10434702;28;20202;-80
2022/05/30 20:05:49;;;;;;;4.07;2.17;;;;;12.40;100834.00;;;;10464262;28;20243;-80
2022/05/30 20:10:51;;;;;;;6.87;2.10;;;;;12.30;100837.00;;;;10428812;28;20193;-81
2022/05/30 20:15:53;;;;;;;3.57;1.97;;;;;12.20;100847.00;;;;10447588;28;20692;-81
2022/05/30 20:20:55;;;;;;;4.90;1.93;;;;;12.20;100845.00;;;;10437371;28;20288;-81
2022/05/30 20:25:57;;;;;;;5.80;2.13;;;;;12.20;100847.00;;;;10468632;28;20562;-81
2022/05/30 20:30:59;;;;;;;3.93;1.90;;;;;12.20;100850.00;;;;10452661;28;20201;-79
2022/05/30 20:36:01;;;;;;;4.53;2.20;;;;;12.10;100853.00;;;;10455584;28;20221;-81
2022/05/30 20:46:24;;;;;;;6.70;3.20;;;;;11.80;100832.00;;;;10431023;28;20727;-81
2022/05/30 20:51:27;;;;;;;13.87;11.37;;;;;11.70;100844.00;;;;10455150;28;20198;-81
2022/05/30 20:56:29;;;;;;;7.60;6.03;;;;;11.50;100844.00;;;;10469239;28;20399;-82
2022/05/30 21:01:31;;;;;;;5.07;3.77;;;;;11.40;100843.00;;;;10453202;28;20194;-82
2022/05/30 21:06:33;;;;;;;5.93;3.73;;;;;11.40;100829.00;;;;10454033;28;20237;-82
2022/05/30 21:11:36;;;;;;;8.90;3.50;;;;;11.50;100828.00;;;;10444337;28;20310;-82
2022/05/30 21:16:50;;;;;;;6.63;3.83;;;;;11.60;100833.00;;;;10443249;28;20798;-82
2022/05/30 21:21:52;;;;;;;5.93;3.23;;;;;11.80;100827.00;;;;10443007;28;20202;-82
2022/05/30 21:26:54;;;;;;;13.30;4.30;;;;;11.90;100828.00;;;;10397433;28;20309;-82
2022/05/30 21:32:21;;;;;;;3.83;3.20;;;;;11.90;100826.00;;;;10432116;28;20202;-82
2022/05/30 21:37:27;;;;;;;12.77;10.47;;;;;12.00;100825.00;;;;10453012;28;20225;-81
2022/05/30 21:42:29;;;;;;;8.13;4.40;;;;;12.10;100830.00;;;;10432712;28;20251;-81
2022/05/30 21:47:32;;;;;;;7.80;3.70;;;;;12.10;100833.00;;;;10410786;28;20838;-82
2022/05/30 21:52:35;;;;;;;5.20;3.80;;;;;12.10;100835.00;;;;10395241;28;20273;-82
2022/05/30 21:57:50;;;;;;;5.03;3.33;;;;;12.10;100831.00;;;;10426164;28;20218;-82
2022/05/30 22:02:53;;;;;;;5.43;3.30;;;;;12.10;100825.00;;;;10440450;28;20225;-82
2022/05/30 22:07:56;;;;;;;5.90;3.47;;;;;12.00;100822.00;;;;10428447;28;20683;-82
2022/05/30 22:12:58;;;;;;;5.87;4.00;;;;;11.80;100816.00;;;;10409656;28;20194;-82
2022/05/30 22:18:00;;;;;;;5.33;3.83;;;;;11.70;100829.00;;;;10429173;28;20244;-82
2022/05/30 22:23:04;;;;;;;6.67;3.57;;;;;11.60;100816.00;;;;10451039;28;20205;-82
2022/05/30 22:28:07;;;;;;;8.83;3.50;;;;;11.50;100818.00;;;;10467103;28;20193;-82
2022/05/30 22:33:10;;;;;;;3.90;3.27;;;;;11.40;100808.00;;;;10408300;28;20206;-82
2022/05/30 22:38:13;;;;;;;7.10;4.43;;;;;11.30;100809.00;;;;10432325;28;20221;-82
2022/05/30 22:43:17;;;;;;;6.93;4.80;;;;;11.10;100814.00;;;;10396216;28;20229;-81
2022/05/30 22:48:22;;;;;;;5.77;3.90;;;;;10.90;100815.00;;;;10402785;28;20231;-81
2022/05/30 22:53:24;;;;;;;7.03;4.23;;;;;10.70;100819.00;;;;10432780;28;20201;-82
2022/05/30 22:58:27;;;;;;;6.70;4.57;;;;;10.60;100807.00;;;;10448351;28;20218;-82
2022/05/30 23:03:29;;;;;;;6.57;4.17;;;;;10.50;100818.00;;;;10444448;28;20245;-82
2022/05/30 23:08:31;;;;;;;6.93;4.80;;;;;10.40;100814.00;;;;10414845;28;20202;-82
2022/05/30 23:13:50;;;;;;;8.47;4.90;;;;;10.40;100816.00;;;;10406732;28;20209;-82
2022/05/30 23:18:52;;;;;;;8.13;5.00;;;;;10.30;100812.00;;;;10422248;28;20194;-82
2022/05/30 23:23:56;;;;;;;12.40;5.97;;;;;10.20;100814.00;;;;10419411;28;20583;-82
2022/05/30 23:28:58;;;;;;;9.17;5.53;;;;;10.00;100816.00;;;;10400076;28;20218;-81
2022/05/30 23:34:01;;;;;;;9.03;6.47;;;;;9.80;100811.00;;;;10455916;28;20218;-82
2022/05/30 23:39:04;;;;;;;9.37;6.43;;;;;9.80;100806.00;;;;10446537;28;20292;-81
2022/05/30 23:49:28;;;;;;;7.63;6.33;;;;;9.70;100810.00;;;;10434237;28;20655;-81
2022/05/30 23:54:30;;;;;;;9.03;6.27;;;;;9.60;100797.00;;;;10471143;28;20213;-81
2022/05/30 23:59:32;;;;;;;6.93;5.67;;;;;9.60;100790.00;;;;10455914;28;20219;-82
